This is the latest recevied weather packets stored in our database for station/object G4KVI. If no packets are shown the sender has not sent any weather packets the latest 10 day(s).
| Time | Temp. | Humidity | Pressure | Rain* | Wind** | Luminosity | Snow |
|---|---|---|---|---|---|---|---|
| 1787740204 | 22.22° C | 66% | 1014.3 hPa | 0 mm | - | 234 W/m² | - |
| 1787739904 | 22.22° C | 67% | 1014.4 hPa | 0 mm | - | 247 W/m² | - |
| 1787739604 | 22.22° C | 66% | 1014.3 hPa | 0 mm | - | 196 W/m² | - |
| 1787739304 | 22.22° C | 65% | 1014.5 hPa | 0 mm | - | 203 W/m² | - |
| 1787739004 | 22.78° C | 66% | 1014.4 hPa | 0 mm | - | 194 W/m² | - |
| 1787738704 | 22.78° C | 65% | 1014.4 hPa | 0 mm | - | 173 W/m² | - |
| 1787738404 | 22.78° C | 65% | 1014.5 hPa | 0 mm | - | 595 W/m² | - |
| 1787738104 | 22.78° C | 64% | 1014.4 hPa | 0 mm | - | 585 W/m² | - |
| 1787737804 | 22.22° C | 67% | 1014.4 hPa | 0 mm | - | 595 W/m² | - |
| 1787737504 | 22.22° C | 67% | 1014.7 hPa | 0 mm | - | 588 W/m² | - |
| 1787737204 | 22.22° C | 68% | 1014.7 hPa | 0 mm | - | 527 W/m² | - |
| 1787736904 | 22.22° C | 68% | 1014.7 hPa | 0 mm | - | 517 W/m² | - |
| 1787736604 | 21.67° C | 70% | 1014.8 hPa | 0 mm | - | 506 W/m² | - |
| 1787736303 | 22.22° C | 68% | 1014.7 hPa | 0 mm | - | 501 W/m² | - |
| 1787736004 | 22.22° C | 67% | 1014.8 hPa | 0 mm | - | 479 W/m² | - |
| 1787735704 | 21.67° C | 71% | 1014.7 hPa | 0 mm | - | 462 W/m² | - |
| 1787735403 | 21.11° C | 73% | 1014.8 hPa | 0 mm | - | 492 W/m² | - |
| 1787735104 | 20° C | 75% | 1014.8 hPa | 0 mm | - | 446 W/m² | - |
| 1787734804 | 20.56° C | 74% | 1014.9 hPa | 0 mm | - | 257 W/m² | - |
| 1787734503 | 20° C | 77% | 1014.7 hPa | 0 mm | - | 442 W/m² | - |
| 1787734203 | 20° C | 76% | 1014.9 hPa | 0 mm | - | 236 W/m² | - |
| 1787733904 | 20° C | 77% | 1014.9 hPa | 0 mm | - | 422 W/m² | - |
| 1787733603 | 19.44° C | 78% | 1014.7 hPa | 0 mm | - | 301 W/m² | - |
| 1787733304 | 19.44° C | 78% | 1014.6 hPa | 0 mm | - | 253 W/m² | - |
| 1787733003 | 19.44° C | 78% | 1014.7 hPa | 0 mm | - | 200 W/m² | - |
* Rain latest hour (hover to see other rain measurements)
** Current wind speed in m/s (hover to see current wind gust speed)